sensor_id;sensor_type;location;lat;lon;timestamp;P1;durP1;ratioP1;P2;durP2;ratioP2
54959;SDS011;40860;51.710;8.736;2023-04-08T00:18:48;12.98;;;10.02;;
54959;SDS011;40860;51.710;8.736;2023-04-08T00:22:57;12.52;;;10.35;;
54959;SDS011;40860;51.710;8.736;2023-04-08T00:27:02;12.20;;;10.13;;
54959;SDS011;40860;51.710;8.736;2023-04-08T00:31:10;15.45;;;11.85;;
54959;SDS011;40860;51.710;8.736;2023-04-08T00:35:20;14.75;;;11.10;;
54959;SDS011;40860;51.710;8.736;2023-04-08T00:39:25;16.05;;;12.10;;
54959;SDS011;40860;51.710;8.736;2023-04-08T00:43:28;15.20;;;12.02;;
54959;SDS011;40860;51.710;8.736;2023-04-08T00:47:31;15.48;;;12.07;;
54959;SDS011;40860;51.710;8.736;2023-04-08T00:51:35;17.60;;;12.38;;
54959;SDS011;40860;51.710;8.736;2023-04-08T00:55:38;14.05;;;11.30;;
54959;SDS011;40860;51.710;8.736;2023-04-08T00:59:41;14.38;;;11.90;;
54959;SDS011;40860;51.710;8.736;2023-04-08T01:03:46;14.05;;;11.93;;
54959;SDS011;40860;51.710;8.736;2023-04-08T01:07:58;14.25;;;11.75;;
54959;SDS011;40860;51.710;8.736;2023-04-08T01:12:08;14.55;;;11.85;;
54959;SDS011;40860;51.710;8.736;2023-04-08T01:16:15;13.65;;;11.98;;
54959;SDS011;40860;51.710;8.736;2023-04-08T01:20:20;14.35;;;11.82;;
54959;SDS011;40860;51.710;8.736;2023-04-08T01:24:30;13.73;;;11.20;;
54959;SDS011;40860;51.710;8.736;2023-04-08T01:28:39;14.30;;;11.73;;
54959;SDS011;40860;51.710;8.736;2023-04-08T01:32:44;16.13;;;11.52;;
54959;SDS011;40860;51.710;8.736;2023-04-08T01:36:48;12.88;;;11.45;;
54959;SDS011;40860;51.710;8.736;2023-04-08T01:40:52;14.40;;;11.35;;
54959;SDS011;40860;51.710;8.736;2023-04-08T01:44:58;13.77;;;11.77;;
54959;SDS011;40860;51.710;8.736;2023-04-08T01:49:02;15.98;;;12.60;;
54959;SDS011;40860;51.710;8.736;2023-04-08T01:53:09;13.18;;;11.20;;
54959;SDS011;40860;51.710;8.736;2023-04-08T01:57:13;13.20;;;11.07;;
54959;SDS011;40860;51.710;8.736;2023-04-08T02:01:25;14.80;;;11.15;;
54959;SDS011;40860;51.710;8.736;2023-04-08T02:05:31;13.98;;;11.60;;
54959;SDS011;40860;51.710;8.736;2023-04-08T02:09:36;15.02;;;11.40;;
54959;SDS011;40860;51.710;8.736;2023-04-08T02:13:43;14.27;;;11.73;;
54959;SDS011;40860;51.710;8.736;2023-04-08T02:17:49;13.63;;;11.18;;
54959;SDS011;40860;51.710;8.736;2023-04-08T02:21:56;12.00;;;10.48;;
54959;SDS011;40860;51.710;8.736;2023-04-08T02:26:03;12.18;;;10.57;;
54959;SDS011;40860;51.710;8.736;2023-04-08T02:30:13;11.77;;;9.60;;
54959;SDS011;40860;51.710;8.736;2023-04-08T02:34:19;16.33;;;11.02;;
54959;SDS011;40860;51.710;8.736;2023-04-08T02:38:23;14.15;;;10.90;;
54959;SDS011;40860;51.710;8.736;2023-04-08T02:42:30;12.50;;;10.80;;
54959;SDS011;40860;51.710;8.736;2023-04-08T02:46:32;15.15;;;11.68;;
54959;SDS011;40860;51.710;8.736;2023-04-08T02:50:38;13.68;;;10.82;;
54959;SDS011;40860;51.710;8.736;2023-04-08T02:54:41;12.20;;;10.82;;
54959;SDS011;40860;51.710;8.736;2023-04-08T02:58:44;13.30;;;10.57;;
54959;SDS011;40860;51.710;8.736;2023-04-08T03:02:47;13.18;;;10.70;;
54959;SDS011;40860;51.710;8.736;2023-04-08T03:06:54;11.13;;;10.02;;
54959;SDS011;40860;51.710;8.736;2023-04-08T03:10:58;13.85;;;10.52;;
54959;SDS011;40860;51.710;8.736;2023-04-08T03:15:01;16.17;;;10.25;;
54959;SDS011;40860;51.710;8.736;2023-04-08T03:19:05;13.55;;;11.05;;
54959;SDS011;40860;51.710;8.736;2023-04-08T03:23:09;13.95;;;11.05;;
54959;SDS011;40860;51.710;8.736;2023-04-08T03:27:12;13.45;;;11.52;;
54959;SDS011;40860;51.710;8.736;2023-04-08T03:31:14;14.05;;;11.18;;
54959;SDS011;40860;51.710;8.736;2023-04-08T03:35:17;13.73;;;11.52;;
54959;SDS011;40860;51.710;8.736;2023-04-08T03:39:22;13.65;;;11.52;;
54959;SDS011;40860;51.710;8.736;2023-04-08T03:43:25;14.40;;;11.77;;
54959;SDS011;40860;51.710;8.736;2023-04-08T03:47:28;16.23;;;12.00;;
54959;SDS011;40860;51.710;8.736;2023-04-08T03:51:31;16.88;;;12.10;;
54959;SDS011;40860;51.710;8.736;2023-04-08T03:55:35;16.77;;;12.57;;
54959;SDS011;40860;51.710;8.736;2023-04-08T03:59:38;14.40;;;12.52;;
54959;SDS011;40860;51.710;8.736;2023-04-08T04:03:41;16.77;;;12.90;;
54959;SDS011;40860;51.710;8.736;2023-04-08T04:07:44;15.52;;;12.80;;
54959;SDS011;40860;51.710;8.736;2023-04-08T04:11:48;14.02;;;11.45;;
54959;SDS011;40860;51.710;8.736;2023-04-08T04:15:51;13.38;;;11.93;;
54959;SDS011;40860;51.710;8.736;2023-04-08T04:19:54;14.13;;;10.98;;
54959;SDS011;40860;51.710;8.736;2023-04-08T04:23:57;13.88;;;11.43;;
54959;SDS011;40860;51.710;8.736;2023-04-08T04:28:02;14.70;;;10.43;;
54959;SDS011;40860;51.710;8.736;2023-04-08T04:32:05;14.23;;;11.15;;
54959;SDS011;40860;51.710;8.736;2023-04-08T04:36:08;12.30;;;10.43;;
54959;SDS011;40860;51.710;8.736;2023-04-08T04:40:11;12.00;;;10.38;;
54959;SDS011;40860;51.710;8.736;2023-04-08T04:44:16;13.60;;;11.48;;
54959;SDS011;40860;51.710;8.736;2023-04-08T04:48:19;13.65;;;10.80;;
54959;SDS011;40860;51.710;8.736;2023-04-08T04:52:23;14.52;;;10.98;;
54959;SDS011;40860;51.710;8.736;2023-04-08T04:56:29;11.88;;;10.48;;
54959;SDS011;40860;51.710;8.736;2023-04-08T05:00:37;14.43;;;11.77;;
54959;SDS011;40860;51.710;8.736;2023-04-08T05:04:40;13.50;;;11.35;;
54959;SDS011;40860;51.710;8.736;2023-04-08T05:08:44;12.90;;;10.65;;
54959;SDS011;40860;51.710;8.736;2023-04-08T05:12:47;14.27;;;10.52;;
54959;SDS011;40860;51.710;8.736;2023-04-08T05:16:53;12.75;;;11.35;;
54959;SDS011;40860;51.710;8.736;2023-04-08T05:20:57;12.73;;;10.75;;
54959;SDS011;40860;51.710;8.736;2023-04-08T05:25:00;14.15;;;10.60;;
54959;SDS011;40860;51.710;8.736;2023-04-08T05:29:03;12.13;;;10.23;;
54959;SDS011;40860;51.710;8.736;2023-04-08T05:33:14;13.55;;;10.98;;
54959;SDS011;40860;51.710;8.736;2023-04-08T05:37:20;13.40;;;10.52;;
54959;SDS011;40860;51.710;8.736;2023-04-08T05:41:26;12.13;;;10.15;;
54959;SDS011;40860;51.710;8.736;2023-04-08T05:45:30;14.15;;;10.32;;
54959;SDS011;40860;51.710;8.736;2023-04-08T05:49:39;13.02;;;10.07;;
54959;SDS011;40860;51.710;8.736;2023-04-08T05:53:44;14.73;;;10.02;;
54959;SDS011;40860;51.710;8.736;2023-04-08T05:57:50;12.20;;;9.82;;
54959;SDS011;40860;51.710;8.736;2023-04-08T06:01:54;10.95;;;9.57;;
54959;SDS011;40860;51.710;8.736;2023-04-08T06:05:59;12.88;;;10.20;;
54959;SDS011;40860;51.710;8.736;2023-04-08T06:10:03;10.50;;;9.40;;
54959;SDS011;40860;51.710;8.736;2023-04-08T06:14:07;10.50;;;9.40;;
54959;SDS011;40860;51.710;8.736;2023-04-08T16:31:05;19.40;;;13.52;;
54959;SDS011;40860;51.710;8.736;2023-04-08T16:35:08;20.75;;;14.18;;
54959;SDS011;40860;51.710;8.736;2023-04-08T16:39:12;21.33;;;14.73;;
54959;SDS011;40860;51.710;8.736;2023-04-08T16:43:15;19.52;;;13.88;;
54959;SDS011;40860;51.710;8.736;2023-04-08T16:47:19;23.98;;;15.02;;
54959;SDS011;40860;51.710;8.736;2023-04-08T16:51:24;19.63;;;14.77;;
54959;SDS011;40860;51.710;8.736;2023-04-08T16:55:33;18.95;;;14.07;;
54959;SDS011;40860;51.710;8.736;2023-04-08T16:59:39;18.17;;;13.57;;
54959;SDS011;40860;51.710;8.736;2023-04-08T17:03:44;19.05;;;13.90;;
54959;SDS011;40860;51.710;8.736;2023-04-08T17:07:48;19.52;;;13.20;;
54959;SDS011;40860;51.710;8.736;2023-04-08T17:11:54;18.63;;;13.70;;
54959;SDS011;40860;51.710;8.736;2023-04-08T17:15:59;18.20;;;13.60;;
54959;SDS011;40860;51.710;8.736;2023-04-08T17:20:03;20.38;;;14.02;;
54959;SDS011;40860;51.710;8.736;2023-04-08T17:24:07;21.83;;;15.07;;
54959;SDS011;40860;51.710;8.736;2023-04-08T17:28:10;19.80;;;14.40;;
54959;SDS011;40860;51.710;8.736;2023-04-08T17:32:13;22.50;;;15.15;;
54959;SDS011;40860;51.710;8.736;2023-04-08T17:36:17;21.27;;;14.85;;
54959;SDS011;40860;51.710;8.736;2023-04-08T17:40:20;20.50;;;15.23;;
54959;SDS011;40860;51.710;8.736;2023-04-08T17:44:24;22.30;;;16.10;;
54959;SDS011;40860;51.710;8.736;2023-04-08T17:48:29;25.13;;;16.80;;
54959;SDS011;40860;51.710;8.736;2023-04-08T17:52:34;25.55;;;17.35;;
54959;SDS011;40860;51.710;8.736;2023-04-08T17:56:38;24.70;;;16.60;;
54959;SDS011;40860;51.710;8.736;2023-04-08T18:00:45;22.85;;;15.68;;
54959;SDS011;40860;51.710;8.736;2023-04-08T18:04:49;24.33;;;15.68;;
54959;SDS011;40860;51.710;8.736;2023-04-08T18:08:53;24.65;;;15.68;;
54959;SDS011;40860;51.710;8.736;2023-04-08T18:12:56;22.50;;;15.38;;
54959;SDS011;40860;51.710;8.736;2023-04-08T18:17:12;20.27;;;14.52;;
54959;SDS011;40860;51.710;8.736;2023-04-08T18:21:15;19.83;;;13.32;;
54959;SDS011;40860;51.710;8.736;2023-04-08T18:25:20;20.73;;;13.18;;
54959;SDS011;40860;51.710;8.736;2023-04-08T18:29:24;17.65;;;12.93;;
54959;SDS011;40860;51.710;8.736;2023-04-08T18:33:29;18.45;;;11.90;;
54959;SDS011;40860;51.710;8.736;2023-04-08T18:37:38;18.70;;;12.98;;
54959;SDS011;40860;51.710;8.736;2023-04-08T18:41:48;19.45;;;12.55;;
54959;SDS011;40860;51.710;8.736;2023-04-08T18:46:13;16.58;;;12.38;;
54959;SDS011;40860;51.710;8.736;2023-04-08T18:50:23;20.48;;;12.93;;
54959;SDS011;40860;51.710;8.736;2023-04-08T18:54:26;17.23;;;12.07;;
54959;SDS011;40860;51.710;8.736;2023-04-08T18:58:33;17.35;;;12.20;;
54959;SDS011;40860;51.710;8.736;2023-04-08T19:02:38;17.52;;;12.30;;
54959;SDS011;40860;51.710;8.736;2023-04-08T19:06:48;17.13;;;11.18;;
54959;SDS011;40860;51.710;8.736;2023-04-08T19:10:52;17.05;;;11.68;;
54959;SDS011;40860;51.710;8.736;2023-04-08T19:14:58;16.65;;;12.27;;
54959;SDS011;40860;51.710;8.736;2023-04-08T19:19:04;17.65;;;12.75;;
54959;SDS011;40860;51.710;8.736;2023-04-08T19:23:15;19.05;;;13.18;;
54959;SDS011;40860;51.710;8.736;2023-04-08T19:27:25;19.48;;;13.38;;
54959;SDS011;40860;51.710;8.736;2023-04-08T19:31:42;18.27;;;12.90;;
54959;SDS011;40860;51.710;8.736;2023-04-08T19:35:51;19.52;;;13.40;;
54959;SDS011;40860;51.710;8.736;2023-04-08T19:40:09;17.67;;;12.80;;
54959;SDS011;40860;51.710;8.736;2023-04-08T19:44:17;18.55;;;13.35;;
54959;SDS011;40860;51.710;8.736;2023-04-08T19:48:24;19.27;;;14.23;;
54959;SDS011;40860;51.710;8.736;2023-04-08T19:52:42;19.63;;;14.30;;
54959;SDS011;40860;51.710;8.736;2023-04-08T19:57:04;22.02;;;14.75;;
54959;SDS011;40860;51.710;8.736;2023-04-08T20:01:16;20.40;;;14.50;;
54959;SDS011;40860;51.710;8.736;2023-04-08T20:05:42;22.58;;;14.65;;
54959;SDS011;40860;51.710;8.736;2023-04-08T20:09:57;19.83;;;14.02;;
54959;SDS011;40860;51.710;8.736;2023-04-08T20:14:08;21.50;;;14.95;;
54959;SDS011;40860;51.710;8.736;2023-04-08T20:22:56;23.35;;;16.02;;
54959;SDS011;40860;51.710;8.736;2023-04-08T20:27:05;27.50;;;17.70;;
54959;SDS011;40860;51.710;8.736;2023-04-08T20:31:13;24.92;;;17.45;;
54959;SDS011;40860;51.710;8.736;2023-04-08T20:35:24;30.70;;;18.42;;
54959;SDS011;40860;51.710;8.736;2023-04-08T20:44:00;29.33;;;18.50;;
54959;SDS011;40860;51.710;8.736;2023-04-08T20:48:17;27.35;;;17.75;;
54959;SDS011;40860;51.710;8.736;2023-04-08T20:52:22;23.35;;;16.35;;
54959;SDS011;40860;51.710;8.736;2023-04-08T20:56:39;28.15;;;18.27;;
54959;SDS011;40860;51.710;8.736;2023-04-08T21:00:48;25.60;;;17.65;;
54959;SDS011;40860;51.710;8.736;2023-04-08T21:04:56;26.70;;;17.75;;
54959;SDS011;40860;51.710;8.736;2023-04-08T21:09:07;29.75;;;18.60;;
54959;SDS011;40860;51.710;8.736;2023-04-08T21:13:32;28.95;;;17.95;;
54959;SDS011;40860;51.710;8.736;2023-04-08T21:17:43;31.52;;;19.10;;
54959;SDS011;40860;51.710;8.736;2023-04-08T21:21:58;29.88;;;18.45;;
54959;SDS011;40860;51.710;8.736;2023-04-08T21:26:15;30.67;;;19.02;;
54959;SDS011;40860;51.710;8.736;2023-04-08T21:30:35;25.95;;;18.27;;
54959;SDS011;40860;51.710;8.736;2023-04-08T21:34:42;27.83;;;17.52;;
54959;SDS011;40860;51.710;8.736;2023-04-08T21:39:13;25.80;;;17.63;;
54959;SDS011;40860;51.710;8.736;2023-04-08T21:43:33;29.73;;;19.08;;
54959;SDS011;40860;51.710;8.736;2023-04-08T21:47:40;34.78;;;20.60;;
54959;SDS011;40860;51.710;8.736;2023-04-08T21:51:45;28.75;;;18.40;;
54959;SDS011;40860;51.710;8.736;2023-04-08T21:55:58;30.33;;;19.00;;
54959;SDS011;40860;51.710;8.736;2023-04-08T22:00:10;30.25;;;19.00;;
54959;SDS011;40860;51.710;8.736;2023-04-08T22:04:30;28.83;;;18.83;;
54959;SDS011;40860;51.710;8.736;2023-04-08T22:08:48;28.70;;;19.35;;
54959;SDS011;40860;51.710;8.736;2023-04-08T22:13:28;29.63;;;19.48;;
54959;SDS011;40860;51.710;8.736;2023-04-08T22:17:37;35.22;;;20.73;;
54959;SDS011;40860;51.710;8.736;2023-04-08T22:21:53;32.20;;;20.40;;
54959;SDS011;40860;51.710;8.736;2023-04-08T22:25:57;31.80;;;20.02;;
54959;SDS011;40860;51.710;8.736;2023-04-08T22:30:14;34.65;;;20.90;;
54959;SDS011;40860;51.710;8.736;2023-04-08T22:34:26;35.53;;;20.90;;
54959;SDS011;40860;51.710;8.736;2023-04-08T23:05:38;35.50;;;20.50;;
54959;SDS011;40860;51.710;8.736;2023-04-08T23:46:26;45.08;;;25.95;;
